VLG37ZV LEBL-LIMC
Flight info
| Callsign | VLG37ZV |
|---|---|
| Flight time | 1h 13m |
| Altitude | 30000 |
| Route | AGENA DCT BODEQ DCT LUMAS DCT UNANA DCT STP DCT RAPED DCT PIGOS DCT EKSID DCT NOSTA DCT EGHIN DCT ANAKI P860 DEVOX |
| Aircraft | A320/M-SDFGHIJ1LORVWY/LB1 |
Departure
| Time | 2026-05-04 18:44 |
|---|---|
| Airport | Josep Tarradellas Barcelona-El Prat Airport (LEBL) |
Arrival
| Time | 2026-05-04 19:58 |
|---|---|
| Airport | Milan Malpensa International Airport (LIMC) |
| Time | Latitude | Longitude | Altitude | Speed | Heading |
|---|---|---|---|---|---|
| 2026-05-04 18:10 | 41.29102 | 2.07794 | 27 ft | 0 kts | 155° |
| 2026-05-04 18:32 | 41.29113 | 2.07787 | 26 ft | 3 kts | 153° |
| 2026-05-04 18:32 | 41.29131 | 2.07774 | 26 ft | 3 kts | 148° |
| 2026-05-04 18:32 | 41.29148 | 2.07759 | 26 ft | 3 kts | 138° |
| 2026-05-04 18:32 | 41.29161 | 2.07740 | 26 ft | 3 kts | 112° |
| 2026-05-04 18:33 | 41.29164 | 2.07720 | 26 ft | 1 kts | 66° |
| 2026-05-04 18:33 | 41.29161 | 2.07713 | 26 ft | 0 kts | 65° |
| 2026-05-04 18:36 | 41.29165 | 2.07723 | 26 ft | 4 kts | 65° |
| 2026-05-04 18:36 | 41.29182 | 2.07775 | 26 ft | 7 kts | 65° |
| 2026-05-04 18:37 | 41.29207 | 2.07848 | 26 ft | 10 kts | 65° |
| 2026-05-04 18:37 | 41.29240 | 2.07942 | 26 ft | 12 kts | 65° |
| 2026-05-04 18:37 | 41.29279 | 2.08057 | 26 ft | 15 kts | 65° |
| 2026-05-04 18:37 | 41.29324 | 2.08190 | 26 ft | 16 kts | 66° |
| 2026-05-04 18:38 | 41.29348 | 2.08261 | 26 ft | 5 kts | 66° |
| 2026-05-04 18:38 | 41.29359 | 2.08294 | 26 ft | 4 kts | 65° |
| 2026-05-04 18:38 | 41.29373 | 2.08341 | 26 ft | 7 kts | 86° |
| 2026-05-04 18:38 | 41.29341 | 2.08393 | 26 ft | 9 kts | 154° |
| 2026-05-04 18:39 | 41.29278 | 2.08432 | 26 ft | 11 kts | 155° |
| 2026-05-04 18:39 | 41.29199 | 2.08479 | 26 ft | 14 kts | 155° |
| 2026-05-04 18:39 | 41.29105 | 2.08536 | 26 ft | 16 kts | 156° |
| 2026-05-04 18:39 | 41.29000 | 2.08599 | 26 ft | 16 kts | 155° |
| 2026-05-04 18:40 | 41.28908 | 2.08654 | 26 ft | 11 kts | 156° |
| 2026-05-04 18:40 | 41.28863 | 2.08726 | 26 ft | 12 kts | 82° |
| 2026-05-04 18:40 | 41.28897 | 2.08834 | 26 ft | 14 kts | 65° |
| 2026-05-04 18:40 | 41.28941 | 2.08962 | 26 ft | 16 kts | 65° |
| 2026-05-04 18:41 | 41.28992 | 2.09111 | 26 ft | 19 kts | 65° |
| 2026-05-04 18:41 | 41.29050 | 2.09280 | 26 ft | 21 kts | 65° |
| 2026-05-04 18:41 | 41.29114 | 2.09467 | 26 ft | 22 kts | 65° |
| 2026-05-04 18:41 | 41.29175 | 2.09644 | 26 ft | 22 kts | 65° |
| 2026-05-04 18:42 | 41.29234 | 2.09818 | 26 ft | 17 kts | 65° |
| 2026-05-04 18:42 | 41.29277 | 2.09929 | 26 ft | 13 kts | 50° |
| 2026-05-04 18:42 | 41.29320 | 2.10028 | 26 ft | 10 kts | 67° |
| 2026-05-04 18:42 | 41.29317 | 2.10115 | 26 ft | 9 kts | 111° |
| 2026-05-04 18:43 | 41.29291 | 2.10204 | 26 ft | 12 kts | 111° |
| 2026-05-04 18:43 | 41.29266 | 2.10283 | 26 ft | 8 kts | 126° |
| 2026-05-04 18:43 | 41.29218 | 2.10290 | 26 ft | 8 kts | 215° |
| 2026-05-04 18:43 | 41.29184 | 2.10219 | 26 ft | 11 kts | 245° |
| 2026-05-04 18:44 | 41.29108 | 2.10000 | 26 ft | 56 kts | 245° |
| 2026-05-04 18:44 | 41.29045 | 2.09816 | 27 ft | 79 kts | 245° |
| 2026-05-04 18:44 | 41.28428 | 2.08038 | 120 ft | 163 kts | 244° |
| 2026-05-04 18:44 | 41.27923 | 2.06680 | 884 ft | 162 kts | 237° |
| 2026-05-04 18:45 | 41.27114 | 2.05666 | 1477 ft | 166 kts | 204° |
| 2026-05-04 18:45 | 41.25932 | 2.05450 | 1891 ft | 180 kts | 179° |
| 2026-05-04 18:45 | 41.24630 | 2.05580 | 2324 ft | 195 kts | 178° |
| 2026-05-04 18:45 | 41.23207 | 2.05676 | 2759 ft | 212 kts | 180° |
| 2026-05-04 18:46 | 41.21714 | 2.05677 | 3522 ft | 215 kts | 183° |
| 2026-05-04 18:46 | 41.20723 | 2.05662 | 4048 ft | 216 kts | 183° |
| 2026-05-04 18:46 | 41.19212 | 2.05658 | 4836 ft | 218 kts | 182° |
| 2026-05-04 18:46 | 41.17681 | 2.05679 | 5623 ft | 221 kts | 182° |
| 2026-05-04 18:47 | 41.16117 | 2.05666 | 6276 ft | 230 kts | 185° |
| 2026-05-04 18:47 | 41.14478 | 2.05556 | 6911 ft | 240 kts | 187° |
| 2026-05-04 18:47 | 41.12797 | 2.05446 | 7684 ft | 244 kts | 186° |
| 2026-05-04 18:47 | 41.11089 | 2.05366 | 8471 ft | 248 kts | 185° |
| 2026-05-04 18:48 | 41.09353 | 2.05300 | 9252 ft | 251 kts | 185° |
| 2026-05-04 18:48 | 41.07600 | 2.05222 | 10038 ft | 253 kts | 186° |
| 2026-05-04 18:48 | 41.05836 | 2.05129 | 10825 ft | 255 kts | 186° |
| 2026-05-04 18:48 | 41.04043 | 2.05149 | 11514 ft | 264 kts | 177° |
| 2026-05-04 18:49 | 41.02236 | 2.05981 | 11848 ft | 293 kts | 152° |
| 2026-05-04 18:49 | 41.00737 | 2.07984 | 12086 ft | 323 kts | 126° |
| 2026-05-04 18:49 | 40.99965 | 2.10836 | 12397 ft | 347 kts | 101° |
| 2026-05-04 18:49 | 41.00121 | 2.14101 | 12741 ft | 366 kts | 76° |
| 2026-05-04 18:50 | 41.01244 | 2.17179 | 13030 ft | 380 kts | 53° |
| 2026-05-04 18:50 | 41.03023 | 2.19834 | 13401 ft | 389 kts | 46° |
| 2026-05-04 18:50 | 41.04802 | 2.22561 | 13938 ft | 394 kts | 53° |
| 2026-05-04 18:50 | 41.06280 | 2.25631 | 14483 ft | 397 kts | 62° |
| 2026-05-04 18:51 | 41.07520 | 2.28915 | 15003 ft | 400 kts | 65° |
| 2026-05-04 18:51 | 41.08714 | 2.32275 | 15516 ft | 404 kts | 65° |
| 2026-05-04 18:51 | 41.09955 | 2.35634 | 16031 ft | 408 kts | 64° |
| 2026-05-04 18:51 | 41.11275 | 2.38978 | 16526 ft | 411 kts | 62° |
| 2026-05-04 18:52 | 41.12651 | 2.42318 | 17005 ft | 415 kts | 62° |
| 2026-05-04 18:52 | 41.14045 | 2.45686 | 17477 ft | 418 kts | 62° |
| 2026-05-04 18:52 | 41.15426 | 2.49096 | 17945 ft | 421 kts | 63° |
| 2026-05-04 18:52 | 41.16796 | 2.52555 | 18402 ft | 425 kts | 63° |
| 2026-05-04 18:53 | 41.18170 | 2.56057 | 18848 ft | 428 kts | 63° |
| 2026-05-04 18:53 | 41.19538 | 2.59533 | 19276 ft | 431 kts | 63° |
| 2026-05-04 18:53 | 41.20942 | 2.63075 | 19723 ft | 434 kts | 63° |
| 2026-05-04 18:53 | 41.22360 | 2.66640 | 20148 ft | 437 kts | 63° |
| 2026-05-04 18:54 | 41.23787 | 2.70235 | 20560 ft | 441 kts | 63° |
| 2026-05-04 18:54 | 41.25217 | 2.73852 | 20955 ft | 444 kts | 63° |
| 2026-05-04 18:54 | 41.26655 | 2.77497 | 21347 ft | 447 kts | 63° |
| 2026-05-04 18:54 | 41.28103 | 2.81172 | 21739 ft | 450 kts | 63° |
| 2026-05-04 18:55 | 41.29559 | 2.84870 | 22109 ft | 453 kts | 63° |
| 2026-05-04 18:55 | 41.32495 | 2.92335 | 22842 ft | 458 kts | 63° |
| 2026-05-04 18:55 | 41.33977 | 2.96108 | 23199 ft | 461 kts | 63° |
| 2026-05-04 18:56 | 41.35466 | 2.99905 | 23552 ft | 463 kts | 63° |
| 2026-05-04 18:56 | 41.36938 | 3.03669 | 23890 ft | 465 kts | 63° |
| 2026-05-04 18:56 | 41.38434 | 3.07503 | 24226 ft | 467 kts | 63° |
| 2026-05-04 18:56 | 41.39956 | 3.11405 | 24549 ft | 470 kts | 63° |
| 2026-05-04 18:57 | 41.41467 | 3.15279 | 24868 ft | 472 kts | 63° |
| 2026-05-04 18:57 | 41.42964 | 3.19121 | 25176 ft | 474 kts | 63° |
| 2026-05-04 18:57 | 41.44485 | 3.23034 | 25469 ft | 477 kts | 64° |
| 2026-05-04 18:57 | 41.46011 | 3.26970 | 25769 ft | 479 kts | 64° |
| 2026-05-04 18:58 | 41.47544 | 3.30928 | 26064 ft | 481 kts | 64° |
| 2026-05-04 18:58 | 41.49084 | 3.34902 | 26378 ft | 482 kts | 64° |
| 2026-05-04 18:58 | 41.50623 | 3.38876 | 26767 ft | 482 kts | 64° |
| 2026-05-04 18:58 | 41.52157 | 3.42848 | 27127 ft | 482 kts | 64° |
| 2026-05-04 18:59 | 41.53677 | 3.46830 | 27511 ft | 481 kts | 66° |
| 2026-05-04 18:59 | 41.54857 | 3.50994 | 27858 ft | 478 kts | 77° |
| 2026-05-04 18:59 | 41.55652 | 3.55292 | 28222 ft | 476 kts | 80° |
| 2026-05-04 18:59 | 41.56330 | 3.59618 | 28570 ft | 476 kts | 82° |
| 2026-05-04 19:00 | 41.56968 | 3.63954 | 28921 ft | 476 kts | 82° |
| 2026-05-04 19:00 | 41.57623 | 3.68290 | 29250 ft | 476 kts | 82° |
| 2026-05-04 19:00 | 41.58320 | 3.72617 | 29542 ft | 478 kts | 81° |
| 2026-05-04 19:00 | 41.59047 | 3.76937 | 29593 ft | 486 kts | 80° |
| 2026-05-04 19:01 | 41.59796 | 3.81350 | 29826 ft | 486 kts | 81° |
| 2026-05-04 19:01 | 41.60524 | 3.85738 | 29939 ft | 479 kts | 81° |
| 2026-05-04 19:01 | 41.61909 | 3.94425 | 30177 ft | 478 kts | 82° |
| 2026-05-04 19:02 | 41.62599 | 3.98776 | 30498 ft | 478 kts | 82° |
| 2026-05-04 19:02 | 41.63299 | 4.03138 | 30733 ft | 481 kts | 81° |
| 2026-05-04 19:02 | 41.64005 | 4.07511 | 31044 ft | 482 kts | 81° |
| 2026-05-04 19:02 | 41.64710 | 4.11893 | 31340 ft | 483 kts | 81° |
| 2026-05-04 19:03 | 41.65414 | 4.16290 | 31629 ft | 484 kts | 82° |
| 2026-05-04 19:03 | 41.66114 | 4.20696 | 31872 ft | 485 kts | 82° |
| 2026-05-04 19:03 | 41.66813 | 4.25118 | 32138 ft | 487 kts | 82° |
| 2026-05-04 19:03 | 41.67513 | 4.29563 | 32394 ft | 488 kts | 82° |
| 2026-05-04 19:04 | 41.68213 | 4.34009 | 32657 ft | 489 kts | 82° |
| 2026-05-04 19:04 | 41.68918 | 4.38480 | 32924 ft | 490 kts | 82° |
| 2026-05-04 19:04 | 41.69620 | 4.42944 | 33193 ft | 491 kts | 82° |
| 2026-05-04 19:04 | 41.70324 | 4.47423 | 33428 ft | 492 kts | 82° |
| 2026-05-04 19:05 | 41.71027 | 4.51916 | 33663 ft | 493 kts | 82° |
| 2026-05-04 19:05 | 41.71727 | 4.56415 | 33911 ft | 494 kts | 82° |
| 2026-05-04 19:05 | 41.73576 | 4.65247 | 33945 ft | 501 kts | 67° |
| 2026-05-04 19:06 | 41.75339 | 4.69275 | 33944 ft | 504 kts | 53° |
| 2026-05-04 19:06 | 41.77685 | 4.72756 | 33965 ft | 504 kts | 44° |
| 2026-05-04 19:06 | 41.82793 | 4.79177 | 33979 ft | 504 kts | 41° |
| 2026-05-04 19:07 | 41.87859 | 4.85721 | 33981 ft | 505 kts | 44° |
| 2026-05-04 19:07 | 41.92795 | 4.92447 | 33973 ft | 505 kts | 44° |
| 2026-05-04 19:08 | 41.97788 | 4.99093 | 33934 ft | 506 kts | 43° |
| 2026-05-04 19:08 | 42.02788 | 5.05674 | 33915 ft | 506 kts | 44° |
| 2026-05-04 19:09 | 42.07789 | 5.12371 | 33948 ft | 506 kts | 44° |
| 2026-05-04 19:09 | 42.12764 | 5.19062 | 33959 ft | 506 kts | 44° |
| 2026-05-04 19:10 | 42.17765 | 5.25751 | 33943 ft | 506 kts | 44° |
| 2026-05-04 19:10 | 42.22733 | 5.32426 | 33944 ft | 507 kts | 44° |
| 2026-05-04 19:11 | 42.27727 | 5.39171 | 33949 ft | 508 kts | 44° |
| 2026-05-04 19:11 | 42.32738 | 5.45933 | 33947 ft | 509 kts | 44° |
| 2026-05-04 19:12 | 42.40253 | 5.56123 | 34024 ft | 509 kts | 45° |
| 2026-05-04 19:13 | 42.45227 | 5.62886 | 34044 ft | 508 kts | 45° |
| 2026-05-04 19:13 | 42.50210 | 5.69670 | 34044 ft | 506 kts | 45° |
| 2026-05-04 19:14 | 42.55168 | 5.76444 | 34021 ft | 505 kts | 45° |
| 2026-05-04 19:14 | 42.60118 | 5.83219 | 33981 ft | 503 kts | 45° |
| 2026-05-04 19:15 | 42.65043 | 5.89975 | 33967 ft | 503 kts | 45° |
| 2026-05-04 19:15 | 42.69955 | 5.96735 | 33970 ft | 503 kts | 45° |
| 2026-05-04 19:16 | 42.74842 | 6.03477 | 33972 ft | 504 kts | 44° |
| 2026-05-04 19:16 | 42.79774 | 6.10288 | 33982 ft | 505 kts | 44° |
| 2026-05-04 19:17 | 42.84713 | 6.17117 | 34035 ft | 505 kts | 43° |
| 2026-05-04 19:17 | 42.89995 | 6.23419 | 34066 ft | 503 kts | 38° |
| 2026-05-04 19:18 | 42.95378 | 6.29503 | 34067 ft | 501 kts | 37° |
| 2026-05-04 19:18 | 43.00708 | 6.35600 | 34066 ft | 499 kts | 38° |
| 2026-05-04 19:19 | 43.05985 | 6.41723 | 34035 ft | 497 kts | 38° |
| 2026-05-04 19:19 | 43.11259 | 6.47803 | 33994 ft | 495 kts | 38° |
| 2026-05-04 19:20 | 43.16519 | 6.53882 | 33982 ft | 494 kts | 38° |
| 2026-05-04 19:20 | 43.21708 | 6.60108 | 33980 ft | 496 kts | 44° |
| 2026-05-04 19:21 | 43.25963 | 6.67530 | 33986 ft | 499 kts | 54° |
| 2026-05-04 19:21 | 43.29948 | 6.75351 | 33997 ft | 500 kts | 54° |
| 2026-05-04 19:22 | 43.34011 | 6.83111 | 34049 ft | 500 kts | 53° |
| 2026-05-04 19:22 | 43.38132 | 6.90825 | 34095 ft | 500 kts | 53° |
| 2026-05-04 19:23 | 43.42174 | 6.98553 | 34100 ft | 500 kts | 53° |
| 2026-05-04 19:23 | 43.46228 | 7.06345 | 34095 ft | 500 kts | 53° |
| 2026-05-04 19:24 | 43.50262 | 7.14059 | 34081 ft | 500 kts | 53° |
| 2026-05-04 19:24 | 43.54347 | 7.21908 | 34048 ft | 500 kts | 53° |
| 2026-05-04 19:25 | 43.58392 | 7.29714 | 34009 ft | 500 kts | 53° |
| 2026-05-04 19:25 | 43.62441 | 7.37537 | 34014 ft | 501 kts | 53° |
| 2026-05-04 19:26 | 43.66460 | 7.45328 | 34012 ft | 501 kts | 53° |
| 2026-05-04 19:26 | 43.70504 | 7.53191 | 34040 ft | 502 kts | 53° |
| 2026-05-04 19:27 | 43.74544 | 7.61056 | 34061 ft | 502 kts | 53° |
| 2026-05-04 19:27 | 43.78593 | 7.68963 | 34063 ft | 503 kts | 53° |
| 2026-05-04 19:28 | 43.82625 | 7.76877 | 34108 ft | 502 kts | 53° |
| 2026-05-04 19:28 | 43.86671 | 7.84802 | 34081 ft | 504 kts | 53° |
| 2026-05-04 19:29 | 43.90727 | 7.92732 | 34100 ft | 503 kts | 53° |
| 2026-05-04 19:29 | 43.94085 | 7.99333 | 34113 ft | 503 kts | 53° |
| 2026-05-04 19:29 | 43.96748 | 8.04587 | 33936 ft | 501 kts | 53° |
| 2026-05-04 19:30 | 43.98754 | 8.08549 | 33601 ft | 502 kts | 53° |
| 2026-05-04 19:30 | 44.00766 | 8.12524 | 33358 ft | 503 kts | 53° |
| 2026-05-04 19:30 | 44.02128 | 8.15217 | 33192 ft | 504 kts | 53° |
| 2026-05-04 19:30 | 44.04119 | 8.19159 | 32906 ft | 504 kts | 54° |
| 2026-05-04 19:31 | 44.05937 | 8.23320 | 32443 ft | 502 kts | 64° |
| 2026-05-04 19:31 | 44.07344 | 8.27753 | 31921 ft | 500 kts | 68° |
| 2026-05-04 19:31 | 44.08631 | 8.32239 | 31361 ft | 499 kts | 69° |
| 2026-05-04 19:31 | 44.09868 | 8.36747 | 30802 ft | 497 kts | 69° |
| 2026-05-04 19:32 | 44.11106 | 8.41231 | 30265 ft | 495 kts | 69° |
| 2026-05-04 19:32 | 44.12371 | 8.45675 | 29689 ft | 492 kts | 68° |
| 2026-05-04 19:32 | 44.13655 | 8.50068 | 29114 ft | 487 kts | 68° |
| 2026-05-04 19:32 | 44.14934 | 8.54417 | 28563 ft | 482 kts | 68° |
| 2026-05-04 19:33 | 44.16183 | 8.58720 | 28040 ft | 476 kts | 68° |
| 2026-05-04 19:33 | 44.17410 | 8.62966 | 27541 ft | 469 kts | 66° |
| 2026-05-04 19:33 | 44.19020 | 8.66876 | 26962 ft | 464 kts | 52° |
| 2026-05-04 19:33 | 44.21239 | 8.69984 | 26481 ft | 454 kts | 35° |
| 2026-05-04 19:34 | 44.23966 | 8.72076 | 25912 ft | 445 kts | 18° |
| 2026-05-04 19:34 | 44.26952 | 8.73014 | 25374 ft | 435 kts | 2° |
| 2026-05-04 19:34 | 44.29951 | 8.73159 | 24843 ft | 429 kts | 358° |
| 2026-05-04 19:34 | 44.32922 | 8.73174 | 24296 ft | 425 kts | 358° |
| 2026-05-04 19:35 | 44.35862 | 8.73203 | 23772 ft | 421 kts | 359° |
| 2026-05-04 19:35 | 44.38780 | 8.73297 | 23256 ft | 417 kts | 360° |
| 2026-05-04 19:35 | 44.41660 | 8.73444 | 22764 ft | 412 kts | 0° |
| 2026-05-04 19:35 | 44.44516 | 8.73607 | 22264 ft | 408 kts | 0° |
| 2026-05-04 19:36 | 44.47341 | 8.73753 | 21752 ft | 404 kts | 0° |
| 2026-05-04 19:36 | 44.50144 | 8.73874 | 21253 ft | 400 kts | 360° |
| 2026-05-04 19:36 | 44.52913 | 8.73982 | 20784 ft | 395 kts | 360° |
| 2026-05-04 19:36 | 44.55643 | 8.74090 | 20338 ft | 391 kts | 360° |
| 2026-05-04 19:37 | 44.58330 | 8.74204 | 20121 ft | 381 kts | 360° |
| 2026-05-04 19:37 | 44.60962 | 8.74322 | 20118 ft | 377 kts | 360° |
| 2026-05-04 19:37 | 44.63577 | 8.74437 | 20050 ft | 373 kts | 360° |
| 2026-05-04 19:37 | 44.66137 | 8.74550 | 19930 ft | 362 kts | 360° |
| 2026-05-04 19:38 | 44.68590 | 8.74630 | 19761 ft | 351 kts | 356° |
| 2026-05-04 19:38 | 44.70966 | 8.74123 | 19416 ft | 343 kts | 341° |
| 2026-05-04 19:38 | 44.73208 | 8.73058 | 19044 ft | 339 kts | 336° |
| 2026-05-04 19:38 | 44.75393 | 8.71853 | 18650 ft | 336 kts | 335° |
| 2026-05-04 19:39 | 44.77560 | 8.70627 | 18268 ft | 335 kts | 335° |
| 2026-05-04 19:39 | 44.79732 | 8.69443 | 17894 ft | 334 kts | 336° |
| 2026-05-04 19:39 | 44.81911 | 8.68310 | 17520 ft | 332 kts | 337° |
| 2026-05-04 19:39 | 44.84085 | 8.67203 | 17145 ft | 331 kts | 338° |
| 2026-05-04 19:40 | 44.86245 | 8.66100 | 16771 ft | 329 kts | 337° |
| 2026-05-04 19:40 | 44.88391 | 8.64994 | 16398 ft | 328 kts | 337° |
| 2026-05-04 19:40 | 44.90530 | 8.63881 | 16023 ft | 326 kts | 337° |
| 2026-05-04 19:40 | 44.92628 | 8.62788 | 15653 ft | 324 kts | 337° |
| 2026-05-04 19:41 | 44.94741 | 8.61686 | 15278 ft | 323 kts | 338° |
| 2026-05-04 19:41 | 44.96841 | 8.60588 | 14903 ft | 321 kts | 338° |
| 2026-05-04 19:41 | 44.98925 | 8.59502 | 14521 ft | 316 kts | 338° |
| 2026-05-04 19:41 | 45.01010 | 8.58600 | 14148 ft | 312 kts | 345° |
| 2026-05-04 19:42 | 45.03130 | 8.57963 | 13775 ft | 311 kts | 347° |
| 2026-05-04 19:42 | 45.05259 | 8.57411 | 13401 ft | 310 kts | 348° |
| 2026-05-04 19:42 | 45.07383 | 8.56874 | 13011 ft | 309 kts | 348° |
| 2026-05-04 19:42 | 45.09489 | 8.56317 | 12565 ft | 306 kts | 348° |
| 2026-05-04 19:43 | 45.11544 | 8.55748 | 12120 ft | 303 kts | 347° |
| 2026-05-04 19:43 | 45.13601 | 8.55168 | 11670 ft | 300 kts | 348° |
| 2026-05-04 19:43 | 45.15638 | 8.54594 | 11220 ft | 297 kts | 348° |
| 2026-05-04 19:43 | 45.17666 | 8.54027 | 10768 ft | 295 kts | 348° |
| 2026-05-04 19:44 | 45.19672 | 8.53471 | 10317 ft | 292 kts | 349° |
| 2026-05-04 19:44 | 45.21662 | 8.52930 | 9867 ft | 290 kts | 349° |
| 2026-05-04 19:44 | 45.23631 | 8.52359 | 9417 ft | 288 kts | 348° |
| 2026-05-04 19:44 | 45.25582 | 8.51774 | 8967 ft | 285 kts | 349° |
| 2026-05-04 19:45 | 45.27520 | 8.51212 | 8555 ft | 281 kts | 349° |
| 2026-05-04 19:45 | 45.29403 | 8.50700 | 8182 ft | 276 kts | 352° |
| 2026-05-04 19:45 | 45.31284 | 8.50752 | 7821 ft | 268 kts | 17° |
| 2026-05-04 19:45 | 45.32850 | 8.52021 | 7516 ft | 256 kts | 48° |
| 2026-05-04 19:46 | 45.33693 | 8.54169 | 7218 ft | 249 kts | 78° |
| 2026-05-04 19:46 | 45.33882 | 8.56597 | 6939 ft | 247 kts | 87° |
| 2026-05-04 19:46 | 45.34035 | 8.59020 | 6640 ft | 246 kts | 83° |
| 2026-05-04 19:46 | 45.34347 | 8.61407 | 6340 ft | 245 kts | 79° |
| 2026-05-04 19:47 | 45.34451 | 8.63803 | 6039 ft | 242 kts | 101° |
| 2026-05-04 19:47 | 45.33720 | 8.65869 | 5944 ft | 232 kts | 134° |
| 2026-05-04 19:47 | 45.32360 | 8.67035 | 5657 ft | 232 kts | 165° |
| 2026-05-04 19:47 | 45.30753 | 8.67345 | 5335 ft | 234 kts | 174° |
| 2026-05-04 19:48 | 45.29130 | 8.67576 | 5034 ft | 234 kts | 171° |
| 2026-05-04 19:48 | 45.27531 | 8.67994 | 4767 ft | 233 kts | 167° |
| 2026-05-04 19:48 | 45.25952 | 8.68502 | 4516 ft | 232 kts | 164° |
| 2026-05-04 19:48 | 45.24511 | 8.69479 | 4252 ft | 230 kts | 139° |
| 2026-05-04 19:49 | 45.23566 | 8.71250 | 4018 ft | 225 kts | 111° |
| 2026-05-04 19:49 | 45.23349 | 8.73368 | 3991 ft | 213 kts | 83° |
| 2026-05-04 19:49 | 45.23675 | 8.75394 | 4007 ft | 210 kts | 74° |
| 2026-05-04 19:49 | 45.24108 | 8.77370 | 4005 ft | 210 kts | 73° |
| 2026-05-04 19:50 | 45.24563 | 8.79339 | 4002 ft | 210 kts | 72° |
| 2026-05-04 19:50 | 45.25067 | 8.81280 | 3992 ft | 210 kts | 61° |
| 2026-05-04 19:50 | 45.26104 | 8.82690 | 3980 ft | 207 kts | 24° |
| 2026-05-04 19:50 | 45.27499 | 8.82948 | 4004 ft | 205 kts | 355° |
| 2026-05-04 19:51 | 45.28911 | 8.82680 | 4009 ft | 205 kts | 352° |
| 2026-05-04 19:51 | 45.30315 | 8.82339 | 4004 ft | 205 kts | 350° |
| 2026-05-04 19:51 | 45.31715 | 8.81959 | 4001 ft | 205 kts | 349° |
| 2026-05-04 19:51 | 45.33115 | 8.81556 | 3999 ft | 205 kts | 349° |
| 2026-05-04 19:52 | 45.34511 | 8.81160 | 4042 ft | 205 kts | 349° |
| 2026-05-04 19:52 | 45.35911 | 8.80782 | 4016 ft | 205 kts | 350° |
| 2026-05-04 19:52 | 45.37295 | 8.80415 | 4001 ft | 197 kts | 350° |
| 2026-05-04 19:52 | 45.38629 | 8.80052 | 3999 ft | 194 kts | 350° |
| 2026-05-04 19:53 | 45.39956 | 8.79683 | 3998 ft | 194 kts | 349° |
| 2026-05-04 19:53 | 45.41268 | 8.79321 | 3996 ft | 194 kts | 350° |
| 2026-05-04 19:53 | 45.42596 | 8.78960 | 3995 ft | 194 kts | 350° |
| 2026-05-04 19:53 | 45.43922 | 8.78597 | 3995 ft | 194 kts | 350° |
| 2026-05-04 19:54 | 45.45252 | 8.78231 | 3910 ft | 194 kts | 350° |
| 2026-05-04 19:54 | 45.46576 | 8.77868 | 3709 ft | 193 kts | 349° |
| 2026-05-04 19:54 | 45.47890 | 8.77509 | 3473 ft | 192 kts | 349° |
| 2026-05-04 19:54 | 45.49197 | 8.77149 | 3225 ft | 191 kts | 349° |
| 2026-05-04 19:55 | 45.50495 | 8.76791 | 2974 ft | 189 kts | 349° |
| 2026-05-04 19:55 | 45.51773 | 8.76441 | 2725 ft | 183 kts | 349° |
| 2026-05-04 19:55 | 45.52987 | 8.76107 | 2488 ft | 172 kts | 349° |
| 2026-05-04 19:55 | 45.54141 | 8.75790 | 2286 ft | 167 kts | 349° |
| 2026-05-04 19:56 | 45.55230 | 8.75489 | 2050 ft | 151 kts | 349° |
| 2026-05-04 19:56 | 45.56202 | 8.75221 | 1861 ft | 138 kts | 349° |
| 2026-05-04 19:56 | 45.57133 | 8.74965 | 1689 ft | 136 kts | 349° |
| 2026-05-04 19:56 | 45.58058 | 8.74710 | 1507 ft | 135 kts | 349° |
| 2026-05-04 19:57 | 45.58978 | 8.74457 | 1327 ft | 134 kts | 349° |
| 2026-05-04 19:57 | 45.59891 | 8.74205 | 1149 ft | 134 kts | 349° |
| 2026-05-04 19:57 | 45.60802 | 8.73954 | 971 ft | 133 kts | 349° |
| 2026-05-04 19:57 | 45.61709 | 8.73704 | 809 ft | 132 kts | 349° |
| 2026-05-04 19:58 | 45.62537 | 8.73476 | 781 ft | 101 kts | 350° |
| 2026-05-04 19:58 | 45.63045 | 8.73339 | 781 ft | 49 kts | 349° |
| 2026-05-04 19:58 | 45.63249 | 8.73284 | 781 ft | 14 kts | 349° |
| 2026-05-04 19:58 | 45.63361 | 8.73253 | 781 ft | 18 kts | 349° |
| 2026-05-04 19:59 | 45.63492 | 8.73216 | 781 ft | 20 kts | 349° |
| 2026-05-04 19:59 | 45.63629 | 8.73147 | 781 ft | 22 kts | 332° |
| 2026-05-04 19:59 | 45.63756 | 8.73017 | 781 ft | 21 kts | 314° |
| 2026-05-04 19:59 | 45.63824 | 8.72891 | 781 ft | 15 kts | 306° |
| 2026-05-04 20:00 | 45.63885 | 8.72770 | 781 ft | 16 kts | 304° |
| 2026-05-04 20:00 | 45.63936 | 8.72659 | 781 ft | 14 kts | 302° |
| 2026-05-04 20:00 | 45.63955 | 8.72525 | 781 ft | 15 kts | 260° |
| 2026-05-04 20:00 | 45.63936 | 8.72372 | 781 ft | 16 kts | 258° |
| 2026-05-04 20:01 | 45.63917 | 8.72228 | 781 ft | 15 kts | 266° |
| 2026-05-04 20:01 | 45.63913 | 8.72075 | 781 ft | 16 kts | 268° |
| 2026-05-04 20:01 | 45.63904 | 8.71931 | 781 ft | 11 kts | 259° |
| 2026-05-04 20:01 | 45.63862 | 8.71831 | 781 ft | 13 kts | 209° |
| 2026-05-04 20:02 | 45.63768 | 8.71825 | 781 ft | 15 kts | 169° |
| 2026-05-04 20:02 | 45.63662 | 8.71853 | 781 ft | 16 kts | 169° |
| 2026-05-04 20:02 | 45.63546 | 8.71883 | 781 ft | 18 kts | 170° |
| 2026-05-04 20:02 | 45.63450 | 8.71903 | 781 ft | 10 kts | 178° |
| 2026-05-04 20:03 | 45.63377 | 8.71926 | 781 ft | 12 kts | 166° |
| 2026-05-04 20:03 | 45.63316 | 8.71905 | 781 ft | 9 kts | 232° |
| 2026-05-04 20:03 | 45.63298 | 8.71815 | 781 ft | 10 kts | 264° |
| 2026-05-04 20:03 | 45.63285 | 8.71711 | 781 ft | 9 kts | 258° |
| 2026-05-04 20:04 | 45.63242 | 8.71659 | 781 ft | 10 kts | 171° |
| 2026-05-04 20:04 | 45.63171 | 8.71676 | 781 ft | 11 kts | 170° |
| 2026-05-04 20:04 | 45.63096 | 8.71696 | 781 ft | 11 kts | 168° |
| 2026-05-04 20:04 | 45.63026 | 8.71718 | 781 ft | 10 kts | 168° |
| 2026-05-04 20:05 | 45.62961 | 8.71735 | 781 ft | 9 kts | 168° |
| 2026-05-04 20:05 | 45.62900 | 8.71751 | 781 ft | 9 kts | 168° |
| 2026-05-04 20:05 | 45.62844 | 8.71768 | 781 ft | 8 kts | 169° |
| 2026-05-04 20:05 | 45.62803 | 8.71778 | 781 ft | 5 kts | 176° |
| 2026-05-04 20:06 | 45.62781 | 8.71756 | 781 ft | 4 kts | 256° |
| 2026-05-04 20:06 | 45.62778 | 8.71723 | 781 ft | 3 kts | 260° |
| 2026-05-04 20:06 | 45.62774 | 8.71697 | 781 ft | 2 kts | 259° |
| 2026-05-04 20:06 | 45.62772 | 8.71678 | 781 ft | 2 kts | 259° |
| 2026-05-04 20:07 | 45.62770 | 8.71668 | 781 ft | 0 kts | 259° |